Gas Texiana — V7JG6 — position and weather

sailwx.info

Track history (hours):
 
Tides and Currents Weather Stations Pressure Air Temp Water Temp Dewpoint Dewpoint Depression Visibility Wind Speed Wind Dir Waves Ship Positions

Gas Texiana

Last reported at 2018-Aug-02 13:00 UTC. Time now 2018-Aug-19 15:17 UTC.
Position N 36°06' E 015°14'.
Warning: this ship's position is 17 days out of date.

Length 105 m; draft 5.8 m.

Type: Ship (hazmat cat A). MMSI: 538002515.

Date/timePositionNaut miles runAvg speedWind from/ knotsBaromVisibWave heightAir tempDewpointWater temp
2018-Aug-02 13:00N 36°06' E 015°14'610.6
2018-Aug-02 12:29N 36°07' E 015°07'511.0
2018-Aug-02 11:59N 36°09' E 015°01'510.6
2018-Aug-02 11:30N 36°11' E 014°55'510.5
2018-Aug-02 11:01N 36°13' E 014°49'510.6
2018-Aug-02 10:30N 36°14' E 014°42'510.6
2018-Aug-02 10:00N 36°16' E 014°36'510.4
2018-Aug-02 09:29N 36°18' E 014°30'510.2
2018-Aug-02 09:00N 36°19' E 014°24'510.4
2018-Aug-02 08:30N 36°21' E 014°18'4 9.1
2018-Aug-02 08:00N 36°23' E 014°13'1 1.0
2018-Aug-02 07:30N 36°23' E 014°12'0 0.6
2018-Aug-02 06:59N 36°23' E 014°12'2 3.6
2018-Aug-02 06:30N 36°23' E 014°10'510.4
2018-Aug-02 06:00N 36°25' E 014°03'510.9
2018-Aug-02 05:31N 36°26' E 013°57'26810.2
2018-Aug-01 03:22N 38°19' E 008°51'2010.0
2018-Aug-01 01:20N 38°32' E 008°31'310.2
2018-Aug-01 01:01N 38°34' E 008°28'14410.2
2018-Jul-31 10:56N 40°38' E 006°55'12110.0
2018-Jul-30 22:55N 42°24' E 005°37'410.3
2018-Jul-30 22:30N 42°27' E 005°34'1210.3
2018-Jul-30 21:21N 42°38' E 005°27'410.1
2018-Jul-30 21:01N 42°41' E 005°24'510.0
2018-Jul-30 20:30N 42°45' E 005°21'5 9.9
2018-Jul-30 20:00N 42°49' E 005°17'710.0
2018-Jul-30 19:21N 42°55' E 005°12'1710.0
2018-Jul-30 17:40N 43°10' E 005°02'3 9.5
2018-Jul-30 17:20N 43°13' E 005°01'3 9.3
2018-Jul-30 17:01N 43°16' E 004°60'5 9.1
2018-Jul-30 16:31N 43°20' E 004°58'3 6.4
2018-Jul-30 16:00N 43°24' E 004°59'0 0.9
2018-Jul-30 15:30N 43°24' E 004°60'0 0.1
2018-Jul-30 15:00N 43°24' E 004°60'0 0.0
2018-Jul-30 14:31N 43°24' E 004°60'0 0.0
2018-Jul-30 14:00N 43°24' E 004°60'0 0.0
2018-Jul-30 13:30N 43°24' E 004°60'0 0.0
2018-Jul-30 13:01N 43°24' E 004°60'0 0.0
2018-Jul-30 12:30N 43°24' E 004°60'0 0.0
2018-Jul-30 12:00N 43°24' E 004°60'0 0.0
2018-Jul-29 13:16N 43°24' E 004°60'0 0.7
2018-Jul-29 12:58N 43°24' E 004°60'2 4.3
2018-Jul-29 12:30N 43°24' E 004°57'1 1.8
2018-Jul-29 11:59N 43°24' E 004°56'0 0.0
2018-Jul-29 11:23N 43°24' E 004°56'0 0.1
2018-Jul-29 10:59N 43°24' E 004°56'0 0.0
2018-Jul-29 10:29N 43°24' E 004°56'0 0.1
2018-Jul-29 09:59N 43°24' E 004°56'0 0.1
2018-Jul-29 09:29N 43°24' E 004°56'0 0.1
2018-Jul-29 08:56N 43°24' E 004°56'0 0.0
2018-Jul-29 08:26N 43°24' E 004°56'0 0.0
2018-Jul-29 07:59N 43°24' E 004°56'0 0.0
2018-Jul-29 07:29N 43°24' E 004°56'0 0.0
2018-Jul-29 06:59N 43°24' E 004°56'0 0.0
2018-Jul-29 06:29N 43°24' E 004°56'0 0.0
2018-Jul-29 05:59N 43°24' E 004°56'0 0.0
2018-Jul-29 05:29N 43°24' E 004°56'0 0.0
2018-Jul-29 04:59N 43°24' E 004°56'0 0.0
2018-Jul-29 04:29N 43°24' E 004°56'0 0.0
2018-Jul-29 03:59N 43°24' E 004°56'0 0.0
2018-Jul-29 03:29N 43°24' E 004°56'0 0.0
2018-Jul-29 02:59N 43°24' E 004°56'0 0.0
2018-Jul-29 02:29N 43°24' E 004°56'0 0.0
2018-Jul-29 01:59N 43°24' E 004°56'0 0.1
2018-Jul-29 01:29N 43°24' E 004°56'0 0.0
2018-Jul-29 00:59N 43°24' E 004°56'0 0.0
2018-Jul-29 00:29N 43°24' E 004°56'0 0.0
2018-Jul-28 23:59N 43°24' E 004°56'0 0.0
2018-Jul-28 23:26N 43°24' E 004°56'0 0.0
2018-Jul-28 22:59N 43°24' E 004°56'0 0.1
2018-Jul-28 22:29N 43°24' E 004°56'0 0.1
2018-Jul-28 21:59N 43°24' E 004°56'0 0.0
2018-Jul-28 21:29N 43°24' E 004°56'0 0.0
2018-Jul-28 20:59N 43°24' E 004°56'0 0.0
2018-Jul-28 20:29N 43°24' E 004°56'0 0.0
2018-Jul-28 19:59N 43°24' E 004°56'0 0.0
2018-Jul-28 19:29N 43°24' E 004°56'0 0.0
2018-Jul-28 18:59N 43°24' E 004°56'1 1.7
2018-Jul-28 18:30N 43°23' E 004°56'4 7.9
2018-Jul-28 18:00N 43°20' E 004°59'4 7.4
2018-Jul-28 17:29N 43°16' E 005°01'4 8.5
2018-Jul-28 17:00N 43°12' E 005°02'5 9.8
2018-Jul-28 16:30N 43°08' E 004°59'910.0
2018-Jul-28 15:36N 43°01' E 004°51'186 9.9
2018-Jul-27 20:47N 40°34' E 002°19'310.9
2018-Jul-27 20:30N 40°32' E 002°16'611.1
2018-Jul-27 20:00N 40°27' E 002°12'511.0
2018-Jul-27 19:30N 40°23' E 002°08'810.8
2018-Jul-27 18:47N 40°16' E 002°02'311.1
2018-Jul-27 18:30N 40°14' E 001°59'611.2
2018-Jul-27 17:59N 40°09' E 001°54'511.2
2018-Jul-27 17:30N 40°05' E 001°50'1811.2
2018-Jul-27 15:53N 39°51' E 001°35'410.9
2018-Jul-27 15:30N 39°48' E 001°32'2410.7
2018-Jul-27 13:17N 39°29' E 001°13'310.7
2018-Jul-27 13:00N 39°27' E 001°11'6810.3
2018-Jul-27 06:23N 38°32' E 000°19'3010.4
2018-Jul-27 03:29N 38°06' W 000°02'510.5
2018-Jul-27 03:00N 38°02' W 000°06'610.4
2018-Jul-27 02:23N 37°57' W 000°10'910.3
2018-Jul-27 01:31N 37°50' W 000°17'210.5
2018-Jul-27 01:21N 37°48' W 000°18'410.5
2018-Jul-27 00:58N 37°45' W 000°21'510.4
2018-Jul-27 00:30N 37°41' W 000°25'610.3
2018-Jul-26 23:58N 37°36' W 000°28'510.3
2018-Jul-26 23:30N 37°32' W 000°32'710.2
2018-Jul-26 22:50N 37°28' W 000°38'310.4
2018-Jul-26 22:30N 37°26' W 000°42'510.5
2018-Jul-26 22:00N 37°22' W 000°47'610.5
2018-Jul-26 21:28N 37°19' W 000°52'710.3
2018-Jul-26 20:45N 37°13' W 000°59'3010.3
2018-Jul-26 17:51N 36°54' W 001°27'25510.7
2018-Jul-25 17:54N 35°54' W 006°35'410.1
2018-Jul-25 17:28N 35°55' W 006°41'1310.2
2018-Jul-25 16:09N 35°58' W 006°57'2 9.7
2018-Jul-25 16:00N 35°59' W 006°58'51 7.0
2018-Jul-25 08:45N 36°13' W 007°59'3 9.7
2018-Jul-25 08:28N 36°13' W 008°02'23 8.5
2018-Jul-25 05:48N 36°18' W 008°29'4 9.2
2018-Jul-25 05:25N 36°18' W 008°25'4 9.2
2018-Jul-25 04:58N 36°17' W 008°20'5 5.5
2018-Jul-25 04:00N 36°18' W 008°26'21 3.7
2018-Jul-24 22:17N 36°24' W 008°52'4 9.9
2018-Jul-24 21:52N 36°25' W 008°57'4 9.9
2018-Jul-24 21:30N 36°26' W 009°01'710.2
2018-Jul-24 20:52N 36°28' W 009°09'410.1
2018-Jul-24 20:28N 36°29' W 009°14'4 9.8
2018-Jul-24 20:00N 36°30' W 009°19'5 9.9
2018-Jul-24 19:30N 36°33' W 009°24'9110.3
2018-Jul-24 10:42N 37°59' W 009°59'210.7
2018-Jul-24 10:30N 38°01' W 009°60'2110.6
2018-Jul-24 08:31N 38°22' W 010°06'010.6
2018-Jul-24 08:30N 38°22' W 010°06'510.3
2018-Jul-24 07:59N 38°27' W 010°08'2810.6
2018-Jul-24 05:19N 38°55' W 010°11'310.6
2018-Jul-24 04:59N 38°58' W 010°11'510.8
2018-Jul-24 04:30N 39°04' W 010°12'510.7
2018-Jul-24 04:00N 39°09' W 010°12'  
Track history (hours):
 
Tides and Currents Weather Stations Pressure Air Temp Water Temp Dewpoint Dewpoint Depression Visibility Wind Speed Wind Dir Waves Ship Positions

Gas Texiana

Last reported at 2018-Aug-02 13:00 UTC. Time now 2018-Aug-19 15:17 UTC.
Position N 36°06' E 015°14'.
Warning: this ship's position is 17 days out of date.

Length 105 m; draft 5.8 m.

Type: Ship (hazmat cat A). MMSI: 538002515.

Date/timePositionNaut miles runAvg speedWind from/ knotsBaromVisibWave heightAir tempDewpointWater temp
2018-Aug-02 13:00N 36°06' E 015°14'610.6
2018-Aug-02 12:29N 36°07' E 015°07'511.0
2018-Aug-02 11:59N 36°09' E 015°01'510.6
2018-Aug-02 11:30N 36°11' E 014°55'510.5
2018-Aug-02 11:01N 36°13' E 014°49'510.6
2018-Aug-02 10:30N 36°14' E 014°42'510.6
2018-Aug-02 10:00N 36°16' E 014°36'510.4
2018-Aug-02 09:29N 36°18' E 014°30'510.2
2018-Aug-02 09:00N 36°19' E 014°24'510.4
2018-Aug-02 08:30N 36°21' E 014°18'4 9.1
2018-Aug-02 08:00N 36°23' E 014°13'1 1.0
2018-Aug-02 07:30N 36°23' E 014°12'0 0.6
2018-Aug-02 06:59N 36°23' E 014°12'2 3.6
2018-Aug-02 06:30N 36°23' E 014°10'510.4
2018-Aug-02 06:00N 36°25' E 014°03'510.9
2018-Aug-02 05:31N 36°26' E 013°57'26810.2
2018-Aug-01 03:22N 38°19' E 008°51'2010.0
2018-Aug-01 01:20N 38°32' E 008°31'310.2
2018-Aug-01 01:01N 38°34' E 008°28'14410.2
2018-Jul-31 10:56N 40°38' E 006°55'12110.0
2018-Jul-30 22:55N 42°24' E 005°37'410.3
2018-Jul-30 22:30N 42°27' E 005°34'1210.3
2018-Jul-30 21:21N 42°38' E 005°27'410.1
2018-Jul-30 21:01N 42°41' E 005°24'510.0
2018-Jul-30 20:30N 42°45' E 005°21'5 9.9
2018-Jul-30 20:00N 42°49' E 005°17'710.0
2018-Jul-30 19:21N 42°55' E 005°12'1710.0
2018-Jul-30 17:40N 43°10' E 005°02'3 9.5
2018-Jul-30 17:20N 43°13' E 005°01'3 9.3
2018-Jul-30 17:01N 43°16' E 004°60'5 9.1
2018-Jul-30 16:31N 43°20' E 004°58'3 6.4
2018-Jul-30 16:00N 43°24' E 004°59'0 0.9
2018-Jul-30 15:30N 43°24' E 004°60'0 0.1
2018-Jul-30 15:00N 43°24' E 004°60'0 0.0
2018-Jul-30 14:31N 43°24' E 004°60'0 0.0
2018-Jul-30 14:00N 43°24' E 004°60'0 0.0
2018-Jul-30 13:30N 43°24' E 004°60'0 0.0
2018-Jul-30 13:01N 43°24' E 004°60'0 0.0
2018-Jul-30 12:30N 43°24' E 004°60'0 0.0
2018-Jul-30 12:00N 43°24' E 004°60'0 0.0
2018-Jul-29 13:16N 43°24' E 004°60'0 0.7
2018-Jul-29 12:58N 43°24' E 004°60'2 4.3
2018-Jul-29 12:30N 43°24' E 004°57'1 1.8
2018-Jul-29 11:59N 43°24' E 004°56'0 0.0
2018-Jul-29 11:23N 43°24' E 004°56'0 0.1
2018-Jul-29 10:59N 43°24' E 004°56'0 0.0
2018-Jul-29 10:29N 43°24' E 004°56'0 0.1
2018-Jul-29 09:59N 43°24' E 004°56'0 0.1
2018-Jul-29 09:29N 43°24' E 004°56'0 0.1
2018-Jul-29 08:56N 43°24' E 004°56'0 0.0
2018-Jul-29 08:26N 43°24' E 004°56'0 0.0
2018-Jul-29 07:59N 43°24' E 004°56'0 0.0
2018-Jul-29 07:29N 43°24' E 004°56'0 0.0
2018-Jul-29 06:59N 43°24' E 004°56'0 0.0
2018-Jul-29 06:29N 43°24' E 004°56'0 0.0
2018-Jul-29 05:59N 43°24' E 004°56'0 0.0
2018-Jul-29 05:29N 43°24' E 004°56'0 0.0
2018-Jul-29 04:59N 43°24' E 004°56'0 0.0
2018-Jul-29 04:29N 43°24' E 004°56'0 0.0
2018-Jul-29 03:59N 43°24' E 004°56'0 0.0
2018-Jul-29 03:29N 43°24' E 004°56'0 0.0
2018-Jul-29 02:59N 43°24' E 004°56'0 0.0
2018-Jul-29 02:29N 43°24' E 004°56'0 0.0
2018-Jul-29 01:59N 43°24' E 004°56'0 0.1
2018-Jul-29 01:29N 43°24' E 004°56'0 0.0
2018-Jul-29 00:59N 43°24' E 004°56'0 0.0
2018-Jul-29 00:29N 43°24' E 004°56'0 0.0
2018-Jul-28 23:59N 43°24' E 004°56'0 0.0
2018-Jul-28 23:26N 43°24' E 004°56'0 0.0
2018-Jul-28 22:59N 43°24' E 004°56'0 0.1
2018-Jul-28 22:29N 43°24' E 004°56'0 0.1
2018-Jul-28 21:59N 43°24' E 004°56'0 0.0
2018-Jul-28 21:29N 43°24' E 004°56'0 0.0
2018-Jul-28 20:59N 43°24' E 004°56'0 0.0
2018-Jul-28 20:29N 43°24' E 004°56'0 0.0
2018-Jul-28 19:59N 43°24' E 004°56'0 0.0
2018-Jul-28 19:29N 43°24' E 004°56'0 0.0
2018-Jul-28 18:59N 43°24' E 004°56'1 1.7
2018-Jul-28 18:30N 43°23' E 004°56'4 7.9
2018-Jul-28 18:00N 43°20' E 004°59'4 7.4
2018-Jul-28 17:29N 43°16' E 005°01'4 8.5
2018-Jul-28 17:00N 43°12' E 005°02'5 9.8
2018-Jul-28 16:30N 43°08' E 004°59'910.0
2018-Jul-28 15:36N 43°01' E 004°51'186 9.9
2018-Jul-27 20:47N 40°34' E 002°19'310.9
2018-Jul-27 20:30N 40°32' E 002°16'611.1
2018-Jul-27 20:00N 40°27' E 002°12'511.0
2018-Jul-27 19:30N 40°23' E 002°08'810.8
2018-Jul-27 18:47N 40°16' E 002°02'311.1
2018-Jul-27 18:30N 40°14' E 001°59'611.2
2018-Jul-27 17:59N 40°09' E 001°54'511.2
2018-Jul-27 17:30N 40°05' E 001°50'1811.2
2018-Jul-27 15:53N 39°51' E 001°35'410.9
2018-Jul-27 15:30N 39°48' E 001°32'2410.7
2018-Jul-27 13:17N 39°29' E 001°13'310.7
2018-Jul-27 13:00N 39°27' E 001°11'6810.3
2018-Jul-27 06:23N 38°32' E 000°19'3010.4
2018-Jul-27 03:29N 38°06' W 000°02'510.5
2018-Jul-27 03:00N 38°02' W 000°06'610.4
2018-Jul-27 02:23N 37°57' W 000°10'910.3
2018-Jul-27 01:31N 37°50' W 000°17'210.5
2018-Jul-27 01:21N 37°48' W 000°18'410.5
2018-Jul-27 00:58N 37°45' W 000°21'510.4
2018-Jul-27 00:30N 37°41' W 000°25'610.3
2018-Jul-26 23:58N 37°36' W 000°28'510.3
2018-Jul-26 23:30N 37°32' W 000°32'710.2
2018-Jul-26 22:50N 37°28' W 000°38'310.4
2018-Jul-26 22:30N 37°26' W 000°42'510.5
2018-Jul-26 22:00N 37°22' W 000°47'610.5
2018-Jul-26 21:28N 37°19' W 000°52'710.3
2018-Jul-26 20:45N 37°13' W 000°59'3010.3
2018-Jul-26 17:51N 36°54' W 001°27'25510.7
2018-Jul-25 17:54N 35°54' W 006°35'410.1
2018-Jul-25 17:28N 35°55' W 006°41'1310.2
2018-Jul-25 16:09N 35°58' W 006°57'2 9.7
2018-Jul-25 16:00N 35°59' W 006°58'51 7.0
2018-Jul-25 08:45N 36°13' W 007°59'3 9.7
2018-Jul-25 08:28N 36°13' W 008°02'23 8.5
2018-Jul-25 05:48N 36°18' W 008°29'4 9.2
2018-Jul-25 05:25N 36°18' W 008°25'4 9.2
2018-Jul-25 04:58N 36°17' W 008°20'5 5.5
2018-Jul-25 04:00N 36°18' W 008°26'21 3.7
2018-Jul-24 22:17N 36°24' W 008°52'4 9.9
2018-Jul-24 21:52N 36°25' W 008°57'4 9.9
2018-Jul-24 21:30N 36°26' W 009°01'710.2
2018-Jul-24 20:52N 36°28' W 009°09'410.1
2018-Jul-24 20:28N 36°29' W 009°14'4 9.8
2018-Jul-24 20:00N 36°30' W 009°19'5 9.9
2018-Jul-24 19:30N 36°33' W 009°24'9110.3
2018-Jul-24 10:42N 37°59' W 009°59'210.7
2018-Jul-24 10:30N 38°01' W 009°60'2110.6
2018-Jul-24 08:31N 38°22' W 010°06'010.6
2018-Jul-24 08:30N 38°22' W 010°06'510.3
2018-Jul-24 07:59N 38°27' W 010°08'2810.6
2018-Jul-24 05:19N 38°55' W 010°11'310.6
2018-Jul-24 04:59N 38°58' W 010°11'510.8
2018-Jul-24 04:30N 39°04' W 010°12'510.7
2018-Jul-24 04:00N 39°09' W 010°12'  

Dump ship's entire track history